Time;durP1;ratioP1;P1;durP2;ratioP2;P2;SDS_P1;SDS_P2;PMS_P1;PMS_P2;Temp;Humidity;BMP_temperature;BMP_pressure;BME280_temperature;BME280_humidity;BME280_pressure;Samples;Min_cycle;Max_cycle;Signal;HPM_P1;HPM_P2
2023/09/07 00:01:26;;;;;;;5.25;3.15;;;;;;;21.60;100.00;96553.09;6128916;23;20011;-82
2023/09/07 00:03:52;;;;;;;4.57;3.05;;;;;;;21.52;100.00;96559.53;6129209;23;20012;-82
2023/09/07 00:06:17;;;;;;;6.18;3.17;;;;;;;21.37;100.00;96559.88;6153352;23;20001;-81
2023/09/07 00:08:44;;;;;;;6.30;2.85;;;;;;;21.64;100.00;96562.31;6129206;23;19997;-81
2023/09/07 00:11:10;;;;;;;5.07;3.30;;;;;;;21.80;100.00;96548.34;6129096;23;20433;-82
2023/09/07 00:13:36;;;;;;;7.45;3.70;;;;;;;21.74;100.00;96557.28;6153583;23;20011;-81
2023/09/07 00:16:05;;;;;;;6.45;3.63;;;;;;;21.77;100.00;96547.97;6127996;23;20016;-81
2023/09/07 00:18:31;;;;;;;6.13;3.28;;;;;;;21.83;100.00;96547.91;6128837;23;20001;-81
2023/09/07 00:20:58;;;;;;;4.97;3.30;;;;;;;21.47;100.00;96553.22;6128974;23;20259;-81
2023/09/07 00:23:23;;;;;;;5.68;3.63;;;;;;;21.73;100.00;96554.78;6153851;23;20108;-81
2023/09/07 00:25:49;;;;;;;6.03;3.55;;;;;;;21.96;100.00;96554.16;6128720;23;20009;-81
2023/09/07 00:28:14;;;;;;;5.65;3.63;;;;;;;21.79;100.00;96553.91;6153582;23;20341;-81
2023/09/07 00:30:40;;;;;;;5.03;3.40;;;;;;;21.55;100.00;96543.03;6129202;23;20327;-81
2023/09/07 00:33:06;;;;;;;5.88;3.20;;;;;;;21.46;100.00;96549.69;6128934;23;20032;-82
2023/09/07 00:35:32;;;;;;;5.80;3.22;;;;;;;21.45;100.00;96547.25;6128053;23;20012;-81
2023/09/07 00:37:57;;;;;;;5.97;3.63;;;;;;;21.67;100.00;96548.50;6128684;23;20005;-81
2023/09/07 00:40:23;;;;;;;7.13;3.72;;;;;;;21.75;100.00;96552.72;6129287;23;20009;-81
2023/09/07 00:42:49;;;;;;;6.45;4.25;;;;;;;22.08;100.00;96553.19;6153011;23;20314;-81
2023/09/07 00:45:15;;;;;;;5.93;3.83;;;;;;;21.98;100.00;96560.09;6153994;23;20004;-82
2023/09/07 00:47:41;;;;;;;6.43;3.45;;;;;;;21.67;100.00;96555.72;6128181;23;20005;-81
2023/09/07 00:50:08;;;;;;;6.18;4.20;;;;;;;21.48;100.00;96546.81;6128337;23;20019;-81
2023/09/07 00:52:35;;;;;;;5.55;3.67;;;;;;;21.34;100.00;96552.28;6129147;23;20013;-81
2023/09/07 00:55:04;;;;;;;5.97;4.03;;;;;;;21.35;100.00;96545.91;6129736;23;20008;-81
2023/09/07 00:57:30;;;;;;;7.20;4.18;;;;;;;21.75;100.00;96558.91;6177965;23;20032;-81
2023/09/07 00:59:55;;;;;;;7.68;3.92;;;;;;;21.62;100.00;96554.50;6125384;23;20087;-81
2023/09/07 01:02:21;;;;;;;7.55;3.60;;;;;;;21.30;100.00;96550.25;6150451;23;20009;-81
2023/09/07 01:04:47;;;;;;;6.30;3.83;;;;;;;21.47;100.00;96556.72;6129106;23;20349;-81
2023/09/07 01:07:25;;;;;;;10.75;4.45;;;;;;;21.24;100.00;96557.28;6128322;23;20024;-81
2023/09/07 01:09:57;;;;;;;5.53;3.72;;;;;;;21.49;100.00;96545.78;6128744;23;20113;-81
2023/09/07 01:12:23;;;;;;;7.05;4.35;;;;;;;21.22;100.00;96553.19;6129067;23;20008;-81
2023/09/07 01:14:49;;;;;;;7.20;4.38;;;;;;;21.28;100.00;96558.47;6129248;23;20012;-81
2023/09/07 01:17:15;;;;;;;7.63;3.90;;;;;;;21.24;100.00;96554.63;6128477;23;20013;-81
2023/09/07 01:19:41;;;;;;;7.30;4.30;;;;;;;21.24;100.00;96553.78;6128260;23;20512;-81
2023/09/07 01:22:09;;;;;;;6.05;3.90;;;;;;;21.48;100.00;96549.50;6129142;23;20009;-81
2023/09/07 01:24:37;;;;;;;6.32;4.10;;;;;;;21.53;100.00;96550.47;6153653;23;20071;-81
2023/09/07 01:27:03;;;;;;;7.13;4.40;;;;;;;21.60;100.00;96545.06;6128444;23;20435;-81
2023/09/07 01:29:29;;;;;;;7.97;4.43;;;;;;;21.44;100.00;96543.78;6131448;23;20072;-81
2023/09/07 01:31:56;;;;;;;7.43;4.20;;;;;;;21.24;100.00;96551.94;6129841;23;20009;-81
2023/09/07 01:34:25;;;;;;;7.70;4.43;;;;;;;21.27;100.00;96559.53;6131232;23;20087;-81
2023/09/07 01:36:53;;;;;;;7.85;3.95;;;;;;;21.52;100.00;96543.47;6129480;23;20001;-81
2023/09/07 01:39:18;;;;;;;7.00;4.43;;;;;;;21.09;100.00;96551.44;6182011;23;20028;-81
2023/09/07 01:41:44;;;;;;;6.55;4.13;;;;;;;21.11;100.00;96557.41;6130341;23;20012;-81
2023/09/07 01:44:10;;;;;;;7.53;4.32;;;;;;;21.24;100.00;96557.28;6131105;23;20019;-81
2023/09/07 01:46:37;;;;;;;7.18;4.35;;;;;;;20.92;100.00;96559.16;6154961;23;20021;-81
2023/09/07 01:49:02;;;;;;;8.95;4.47;;;;;;;;;;6131261;23;20017;-81
2023/09/07 01:51:28;;;;;;;6.30;4.40;;;;;;;20.77;100.00;96559.47;6155341;23;20008;-81
2023/09/07 01:53:54;;;;;;;7.25;4.00;;;;;;;20.68;100.00;96568.78;6155488;23;20020;-81
2023/09/07 01:56:20;;;;;;;10.82;5.32;;;;;;;20.89;100.00;96565.78;6138703;23;20004;-81
2023/09/07 01:58:46;;;;;;;7.35;4.75;;;;;;;20.74;100.00;96569.78;6153086;23;20016;-81
2023/09/07 02:01:21;;;;;;;6.00;4.45;;;;;;;20.71;100.00;96558.47;6156441;23;19989;-81
2023/09/07 02:03:48;;;;;;;6.57;4.10;;;;;;;20.93;100.00;96560.81;6178450;23;20035;-82
2023/09/07 02:06:13;;;;;;;6.50;4.63;;;;;;;20.98;100.00;96558.31;6182821;23;20004;-82
2023/09/07 02:08:39;;;;;;;6.53;3.92;;;;;;;20.63;100.00;96553.41;6150271;23;20035;-81
2023/09/07 02:11:05;;;;;;;6.28;3.92;;;;;;;20.92;100.00;96554.66;6133559;23;20318;-81
2023/09/07 02:13:31;;;;;;;9.63;4.13;;;;;;;20.61;100.00;96554.66;6156964;23;20095;-81
2023/09/07 02:15:57;;;;;;;6.63;4.73;;;;;;;20.62;100.00;96556.28;6130840;23;20008;-81
2023/09/07 02:18:22;;;;;;;7.17;4.80;;;;;;;20.54;100.00;96551.19;6133069;23;19997;-81
2023/09/07 02:20:48;;;;;;;6.97;4.75;;;;;;;20.57;100.00;96553.44;6157044;23;20001;-82
2023/09/07 02:23:14;;;;;;;7.13;4.50;;;;;;;20.31;100.00;96552.50;6158114;23;20015;-81
2023/09/07 02:25:43;;;;;;;6.82;4.65;;;;;;;20.42;100.00;96557.19;6156762;23;20063;-82
2023/09/07 02:28:08;;;;;;;8.13;5.37;;;;;;;19.91;100.00;96555.31;6132113;23;20052;-81
2023/09/07 02:30:34;;;;;;;8.02;5.43;;;;;;;20.39;100.00;96556.81;6132492;23;20016;-81
2023/09/07 02:32:59;;;;;;;7.60;5.10;;;;;;;20.16;100.00;96552.78;6132634;23;20013;-82
2023/09/07 02:35:26;;;;;;;7.73;4.57;;;;;;;20.27;100.00;96556.63;6131757;23;20031;-81
2023/09/07 02:37:53;;;;;;;8.17;4.63;;;;;;;20.34;100.00;96552.06;6130343;23;20005;-81
2023/09/07 02:40:18;;;;;;;8.77;5.57;;;;;;;20.24;100.00;96555.19;6132602;23;20378;-81
2023/09/07 02:42:44;;;;;;;8.30;5.10;;;;;;;20.34;100.00;96551.25;6131345;23;20001;-80
2023/09/07 02:45:14;;;;;;;7.53;5.10;;;;;;;20.51;100.00;96543.59;6131979;23;20148;-81
2023/09/07 02:47:40;;;;;;;7.83;5.07;;;;;;;20.33;100.00;96553.13;6132139;23;20035;-81
2023/09/07 02:50:06;;;;;;;7.40;5.17;;;;;;;20.29;100.00;96553.75;6156664;23;20005;-81
2023/09/07 02:52:31;;;;;;;9.63;5.68;;;;;;;20.17;100.00;96545.59;6131935;23;20005;-81
2023/09/07 02:54:57;;;;;;;7.20;5.47;;;;;;;20.50;100.00;96542.75;6132684;23;20422;-81
2023/09/07 02:57:23;;;;;;;7.67;5.40;;;;;;;20.41;100.00;96541.38;6131121;23;20012;-81
2023/09/07 02:59:49;;;;;;;8.30;5.07;;;;;;;20.33;100.00;96549.63;6156371;23;20013;-81
2023/09/07 03:02:14;;;;;;;8.43;5.30;;;;;;;20.32;100.00;96546.16;6130431;23;20009;-81
2023/09/07 03:04:40;;;;;;;7.13;5.30;;;;;;;20.57;100.00;96543.56;6129966;23;20492;-81
2023/09/07 03:07:06;;;;;;;7.00;5.40;;;;;;;20.37;100.00;96550.84;6126866;23;20013;-81
2023/09/07 03:09:31;;;;;;;9.10;5.03;;;;;;;20.27;100.00;96555.81;6127908;23;20009;-81
2023/09/07 03:11:57;;;;;;;8.40;5.17;;;;;;;20.37;100.00;96551.66;6127192;23;20011;-81
2023/09/07 03:14:24;;;;;;;7.67;4.50;;;;;;;20.34;100.00;96546.75;6129364;23;20052;-81
2023/09/07 03:16:50;;;;;;;7.93;5.10;;;;;;;20.51;100.00;96548.94;6127726;23;20309;-81
2023/09/07 03:19:16;;;;;;;6.67;4.90;;;;;;;20.37;100.00;96554.31;6128129;23;20028;-81
2023/09/07 03:21:43;;;;;;;8.53;5.17;;;;;;;20.18;100.00;96549.88;6127217;23;20012;-81
2023/09/07 03:24:09;;;;;;;8.37;5.40;;;;;;;20.10;100.00;96548.28;6128591;23;20430;-81
2023/09/07 03:26:35;;;;;;;8.07;5.27;;;;;;;20.22;100.00;96559.94;6127911;23;20016;-81
2023/09/07 03:29:00;;;;;;;9.30;5.77;;;;;;;20.17;100.00;96548.25;6127926;23;20388;-83
2023/09/07 03:31:26;;;;;;;8.63;6.00;;;;;;;19.84;100.00;96545.69;6130933;23;20004;-82
2023/09/07 03:33:52;;;;;;;7.93;5.40;;;;;;;20.00;100.00;96546.06;6131083;23;20013;-81
2023/09/07 03:36:17;;;;;;;8.70;5.40;;;;;;;19.73;100.00;96539.97;6129950;23;20008;-81
2023/09/07 03:38:43;;;;;;;11.50;6.30;;;;;;;19.79;100.00;96541.00;6130181;23;20092;-82
2023/09/07 03:41:09;;;;;;;8.33;6.07;;;;;;;19.82;100.00;96539.75;6129442;23;20001;-86
2023/09/07 03:43:35;;;;;;;8.80;5.50;;;;;;;19.89;100.00;96541.38;6132159;23;20004;-90
2023/09/07 03:46:00;;;;;;;59.93;11.67;;;;;;;20.23;100.00;96534.88;6155298;23;20082;-80
2023/09/07 03:48:26;;;;;;;8.73;6.13;;;;;;;20.17;100.00;96529.56;6129508;23;20087;-81
2023/09/07 03:50:52;;;;;;;8.60;5.00;;;;;;;20.16;100.00;96533.28;6127964;23;20016;-81
2023/09/07 03:53:17;;;;;;;8.63;5.37;;;;;;;20.07;100.00;96534.53;6155867;23;20008;-81
2023/09/07 03:55:44;;;;;;;8.13;5.20;;;;;;;20.29;100.00;96546.56;6155009;23;20004;-81
2023/09/07 03:58:12;;;;;;;9.97;6.17;;;;;;;20.09;100.00;96540.50;6131323;23;20016;-81
2023/09/07 04:00:41;;;;;;;9.63;5.40;;;;;;;20.07;100.00;96538.03;6129616;23;20036;-81
2023/09/07 04:03:08;;;;;;;7.93;5.87;;;;;;;20.08;100.00;96544.19;6128833;23;20791;-81
2023/09/07 04:05:33;;;;;;;9.40;6.50;;;;;;;19.87;100.00;96551.44;6129368;23;20005;-81
2023/09/07 04:08:00;;;;;;;8.53;5.87;;;;;;;19.84;100.00;96538.50;6154190;23;20021;-81
2023/09/07 04:10:26;;;;;;;9.07;6.30;;;;;;;19.76;100.00;96539.56;6154991;23;20017;-81
2023/09/07 04:12:51;;;;;;;7.83;5.80;;;;;;;19.80;100.00;96545.31;6130694;23;20561;-81
2023/09/07 04:15:17;;;;;;;8.53;5.63;;;;;;;19.81;100.00;96538.94;6131505;23;20020;-81
2023/09/07 04:17:43;;;;;;;8.30;5.60;;;;;;;20.01;100.00;96545.03;6131136;23;20009;-81
2023/09/07 04:20:10;;;;;;;7.57;5.87;;;;;;;19.84;100.00;96540.38;6155900;23;20001;-82
2023/09/07 04:22:36;;;;;;;9.03;6.30;;;;;;;20.23;100.00;96542.06;6135230;23;20008;-84
2023/09/07 04:25:11;;;;;;;8.97;6.03;;;;;;;19.91;100.00;96541.16;6136898;23;20015;-82
2023/09/07 04:27:36;;;;;;;10.13;6.23;;;;;;;19.97;100.00;96540.31;6130338;23;20151;-82
2023/09/07 04:30:02;;;;;;;8.90;5.43;;;;;;;19.89;100.00;96544.06;6155151;23;20429;-82
2023/09/07 04:32:28;;;;;;;9.73;7.03;;;;;;;19.77;100.00;96540.38;6131457;23;20449;-82
2023/09/07 04:34:59;;;;;;;8.47;6.07;;;;;;;19.77;100.00;96543.88;6129329;23;20005;-81
2023/09/07 04:37:25;;;;;;;8.83;6.83;;;;;;;19.90;100.00;96551.03;6129753;23;20005;-82
2023/09/07 04:39:54;;;;;;;8.53;6.53;;;;;;;20.14;100.00;96551.34;6154669;23;20013;-82
2023/09/07 04:42:21;;;;;;;8.33;6.10;;;;;;;19.93;100.00;96555.94;6129304;23;20013;-81
2023/09/07 04:44:47;;;;;;;8.30;6.70;;;;;;;20.10;100.00;96544.81;6130201;23;20091;-82
2023/09/07 04:47:15;;;;;;;8.13;6.17;;;;;;;20.01;100.00;96547.69;6130462;23;20311;-83
2023/09/07 04:49:41;;;;;;;7.83;6.30;;;;;;;19.91;100.00;96552.66;6131687;23;20005;-82
2023/09/07 04:52:07;;;;;;;11.67;6.17;;;;;;;19.90;100.00;96553.69;6130249;23;20012;-83
2023/09/07 04:54:32;;;;;;;10.00;6.53;;;;;;;19.52;100.00;96549.03;6131626;23;20016;-83
2023/09/07 04:56:58;;;;;;;8.23;6.57;;;;;;;19.66;100.00;96551.72;6131180;23;20480;-82
2023/09/07 04:59:23;;;;;;;11.47;6.73;;;;;;;19.63;100.00;96552.09;6155964;23;20004;-83
2023/09/07 05:01:49;;;;;;;8.43;6.43;;;;;;;19.75;100.00;96548.63;6131851;23;20043;-83
2023/09/07 05:04:15;;;;;;;9.03;6.67;;;;;;;19.54;100.00;96549.63;6133809;23;20461;-83
2023/09/07 05:06:41;;;;;;;10.77;7.17;;;;;;;19.85;100.00;96553.53;6149785;23;20077;-82
2023/09/07 05:09:07;;;;;;;8.97;6.50;;;;;;;19.94;100.00;96546.91;6159835;23;20000;-82
2023/09/07 05:11:37;;;;;;;9.17;6.60;;;;;;;19.84;100.00;96557.19;6159717;23;20017;-82
2023/09/07 05:14:03;;;;;;;11.73;6.93;;;;;;;20.02;100.00;96554.69;6182453;23;20001;-82
2023/09/07 05:16:28;;;;;;;11.07;6.83;;;;;;;20.22;100.00;96559.09;6156490;23;20008;-83
2023/09/07 05:18:54;;;;;;;9.57;6.90;;;;;;;20.07;100.00;96559.38;6148957;23;20057;-82
2023/09/07 05:21:20;;;;;;;12.73;6.63;;;;;;;20.52;100.00;96559.41;6157641;23;20028;-82
2023/09/07 05:23:49;;;;;;;8.57;6.10;;;;;;;20.38;100.00;96558.63;6132806;23;20067;-83
2023/09/07 05:26:21;;;;;;;10.13;6.37;;;;;;;21.26;100.00;96555.22;6154866;23;20430;-81
2023/09/07 05:28:46;;;;;;;8.63;6.37;;;;;;;21.55;100.00;96553.75;6156959;23;20013;-82
2023/09/07 05:31:13;;;;;;;7.87;6.47;;;;;;;21.52;100.00;96551.50;6131072;23;20005;-82
2023/09/07 05:33:39;;;;;;;10.40;6.77;;;;;;;21.78;100.00;96558.44;6131243;23;20005;-82
2023/09/07 05:36:05;;;;;;;8.33;5.83;;;;;;;22.65;100.00;96557.44;6129650;23;20005;-82
2023/09/07 05:38:30;;;;;;;7.78;6.15;;;;;;;22.98;100.00;96552.44;6130668;23;20438;-83
2023/09/07 05:40:56;;;;;;;8.15;5.55;;;;;;;22.99;100.00;96553.25;6181415;23;20012;-82
2023/09/07 05:43:23;;;;;;;7.82;5.90;;;;;;;23.25;100.00;96558.22;6130994;23;20005;-82
2023/09/07 05:45:53;;;;;;;8.55;5.80;;;;;;;22.83;100.00;96557.38;6154496;23;20036;-82
2023/09/07 05:48:18;;;;;;;8.88;5.55;;;;;;;23.03;100.00;96560.59;6130936;23;20517;-82
2023/09/07 05:50:45;;;;;;;9.57;5.57;;;;;;;23.24;100.00;96561.94;6130407;23;20442;-82
2023/09/07 05:53:11;;;;;;;9.00;5.45;;;;;;;23.28;100.00;96555.06;6130469;23;20016;-82
2023/09/07 05:55:37;;;;;;;7.03;4.97;;;;;;;23.01;100.00;96557.34;6130244;23;20311;-83
2023/09/07 05:58:08;;;;;;;7.65;5.88;;;;;;;23.64;100.00;96555.06;6154143;23;20063;-83
2023/09/07 06:00:38;;;;;;;8.02;5.63;;;;;;;24.46;100.00;96563.06;6131151;23;20465;-82
2023/09/07 06:03:05;;;;;;;7.35;5.55;;;;;;;24.35;100.00;96562.00;6130961;23;20051;-82
2023/09/07 06:05:31;;;;;;;9.43;4.82;;;;;;;24.62;100.00;96564.97;6154984;23;20009;-82
2023/09/07 06:07:57;;;;;;;8.98;4.90;;;;;;;23.94;100.00;96565.69;6153701;23;20101;-83
2023/09/07 06:10:23;;;;;;;9.55;5.00;;;;;;;23.30;100.00;96557.50;6130894;23;20007;-82
2023/09/07 06:12:49;;;;;;;7.60;4.97;;;;;;;24.34;100.00;96565.72;6154969;23;20013;-82
2023/09/07 06:15:16;;;;;;;7.00;4.40;;;;;;;23.98;100.00;96559.63;6132340;23;20258;-82
2023/09/07 06:17:42;;;;;;;6.10;4.80;;;;;;;23.78;100.00;96561.88;6132426;23;20005;-83
2023/09/07 06:20:08;;;;;;;7.65;4.45;;;;;;;24.50;100.00;96563.38;6157589;23;20008;-82
2023/09/07 06:22:34;;;;;;;7.32;5.05;;;;;;;25.17;100.00;96563.56;6132662;23;20009;-82
2023/09/07 06:25:00;;;;;;;7.40;5.13;;;;;;;25.93;96.02;96550.47;6156464;23;20013;-82
2023/09/07 06:27:25;;;;;;;9.10;4.95;;;;;;;26.00;89.78;96556.47;6131573;23;20001;-83
2023/09/07 06:29:52;;;;;;;7.68;4.78;;;;;;;26.25;90.37;96560.56;6132033;23;20009;-82
2023/09/07 06:32:19;;;;;;;7.63;5.18;;;;;;;26.83;86.92;96555.56;6131797;23;20001;-83
2023/09/07 06:34:44;;;;;;;7.70;4.78;;;;;;;26.43;87.23;96559.44;6157426;23;20020;-82
2023/09/07 06:37:11;;;;;;;7.13;4.57;;;;;;;25.76;91.44;96557.75;6130861;23;20719;-82
2023/09/07 06:39:38;;;;;;;5.88;4.30;;;;;;;26.53;86.37;96560.41;6156282;23;20012;-83
2023/09/07 06:42:04;;;;;;;9.45;4.97;;;;;;;26.41;84.29;96561.56;6131098;23;20008;-82
2023/09/07 06:44:37;;;;;;;7.88;4.50;;;;;;;27.14;80.72;96560.22;6134530;23;20111;-82
2023/09/07 06:47:03;;;;;;;7.90;4.47;;;;;;;27.59;78.13;96556.25;6131720;23;20009;-83
2023/09/07 06:49:29;;;;;;;7.40;4.25;;;;;;;27.92;73.17;96559.72;6131785;23;20029;-83
2023/09/07 06:51:56;;;;;;;5.63;4.00;;;;;;;28.58;71.31;96564.66;6131908;23;20001;-82
2023/09/07 06:54:22;;;;;;;6.95;4.07;;;;;;;28.14;70.11;96563.09;6131786;23;20051;-83
2023/09/07 06:56:48;;;;;;;6.30;3.97;;;;;;;28.76;65.27;96566.84;6131364;23;20013;-83
2023/09/07 06:59:14;;;;;;;6.15;4.00;;;;;;;28.16;70.48;96565.53;6131316;23;20067;-82
2023/09/07 07:01:40;;;;;;;7.93;4.53;;;;;;;27.63;76.02;96572.75;6156309;23;20380;-83
2023/09/07 07:04:06;;;;;;;7.35;4.45;;;;;;;27.85;74.01;96562.66;6132032;23;20005;-82
2023/09/07 07:06:32;;;;;;;9.60;4.28;;;;;;;28.29;72.12;96573.16;6155781;23;20009;-83
2023/09/07 07:08:57;;;;;;;6.80;3.92;;;;;;;27.87;74.62;96571.34;6156297;23;20131;-82
2023/09/07 07:11:23;;;;;;;6.18;4.28;;;;;;;29.13;66.38;96568.56;6131427;23;20020;-83
2023/09/07 07:13:49;;;;;;;5.88;4.07;;;;;;;29.65;62.34;96566.72;6156404;23;20315;-82
2023/09/07 07:16:16;;;;;;;9.57;4.68;;;;;;;28.73;69.28;96572.81;6130791;23;20032;-83
2023/09/07 07:18:42;;;;;;;8.32;4.18;;;;;;;29.10;69.94;96569.09;6132233;23;20842;-83
2023/09/07 07:21:08;;;;;;;6.82;3.95;;;;;;;30.46;61.50;96568.41;6131270;23;20005;-83
2023/09/07 07:23:36;;;;;;;7.35;3.80;;;;;;;31.06;57.26;96562.97;6131992;23;20005;-83
2023/09/07 07:26:02;;;;;;;8.25;3.60;;;;;;;30.99;56.93;96566.00;6154921;23;20013;-83
2023/09/07 07:28:27;;;;;;;6.50;3.65;;;;;;;31.68;55.51;96567.63;6131569;23;20737;-83
2023/09/07 07:30:53;;;;;;;6.40;3.83;;;;;;;32.11;52.38;96554.16;6156289;23;20009;-83
2023/09/07 07:33:20;;;;;;;5.22;3.50;;;;;;;30.03;58.01;96562.56;6156590;23;20017;-83
2023/09/07 07:35:46;;;;;;;8.30;3.70;;;;;;;32.17;52.56;96557.66;6131191;23;20063;-83
2023/09/07 07:38:14;;;;;;;7.55;3.25;;;;;;;32.65;49.97;96562.25;6131348;23;20011;-82
2023/09/07 07:40:42;;;;;;;6.43;3.78;;;;;;;31.21;53.17;96563.63;6132296;23;20013;-83
2023/09/07 07:43:10;;;;;;;6.22;3.70;;;;;;;32.11;50.21;96565.03;6130580;23;20084;-83
2023/09/07 07:45:38;;;;;;;7.05;3.33;;;;;;;31.17;50.00;96565.31;6130997;23;20389;-83
2023/09/07 07:48:07;;;;;;;6.10;3.30;;;;;;;32.13;49.08;96559.31;6130326;23;20016;-83
2023/09/07 07:50:38;;;;;;;5.63;3.22;;;;;;;31.98;48.36;96554.84;6130886;23;20341;-83
2023/09/07 07:53:07;;;;;;;5.43;3.60;;;;;;;31.06;50.09;96563.75;6155215;23;20011;-83
2023/09/07 07:55:40;;;;;;;4.57;3.33;;;;;;;31.34;48.06;96562.22;6131592;23;20005;-82
2023/09/07 07:58:09;;;;;;;6.57;3.35;;;;;;;32.10;47.44;96552.53;6154984;23;20660;-83
2023/09/07 08:00:36;;;;;;;8.90;3.13;;;;;;;33.33;44.82;96561.81;6131294;23;20032;-83
2023/09/07 08:03:03;;;;;;;4.97;3.42;;;;;;;33.01;46.06;96562.59;6131120;23;20060;-83
2023/09/07 08:05:30;;;;;;;4.97;2.90;;;;;;;33.12;46.37;96561.31;6131786;23;20001;-83
2023/09/07 08:07:56;;;;;;;6.78;3.50;;;;;;;32.00;46.49;96557.28;6131083;23;20001;-83
2023/09/07 08:10:22;;;;;;;5.78;3.03;;;;;;;31.69;48.87;96558.38;6156899;23;20013;-83
2023/09/07 08:12:48;;;;;;;5.13;3.42;;;;;;;32.01;48.22;96557.00;6133001;23;20016;-83
2023/09/07 08:15:14;;;;;;;5.20;3.38;;;;;;;32.29;47.76;96554.50;6134778;23;20027;-83
2023/09/07 08:17:40;;;;;;;7.35;3.63;;;;;;;33.19;46.52;96555.50;6147686;23;20461;-83
2023/09/07 08:20:08;;;;;;;6.32;3.60;;;;;;;33.63;45.04;96559.72;6153919;23;20055;-83
2023/09/07 08:22:36;;;;;;;5.70;3.30;;;;;;;32.30;48.70;96553.41;6158316;23;20013;-83
2023/09/07 08:25:02;;;;;;;9.20;3.50;;;;;;;33.19;46.20;96555.50;6155028;23;19989;-83
2023/09/07 08:27:28;;;;;;;5.75;3.58;;;;;;;32.74;46.34;96555.06;6154764;23;20032;-83
2023/09/07 08:29:55;;;;;;;5.90;3.75;;;;;;;33.92;44.40;96552.09;6139105;23;20033;-83
2023/09/07 08:32:21;;;;;;;7.28;3.38;;;;;;;33.27;45.43;96549.41;6129948;23;20087;-83
2023/09/07 08:34:46;;;;;;;6.10;4.00;;;;;;;32.73;45.97;96551.53;6130287;23;20858;-83
2023/09/07 08:37:12;;;;;;;5.85;3.55;;;;;;;33.33;45.15;96550.91;6129603;23;19997;-83
2023/09/07 08:39:39;;;;;;;6.43;3.92;;;;;;;33.25;46.23;96549.66;6132074;23;20005;-83
2023/09/07 08:42:09;;;;;;;6.32;3.70;;;;;;;33.60;43.94;96547.47;6130799;23;20001;-83
2023/09/07 08:44:37;;;;;;;6.25;3.35;;;;;;;33.87;43.93;96554.94;6129770;23;20005;-84
2023/09/07 08:47:04;;;;;;;5.10;3.92;;;;;;;33.07;45.29;96554.06;6128225;23;20437;-83
2023/09/07 08:49:30;;;;;;;7.68;4.05;;;;;;;33.84;46.00;96544.63;6129893;23;20032;-83
2023/09/07 08:51:59;;;;;;;6.03;3.40;;;;;;;33.22;47.56;96560.34;6131438;23;20334;-83
2023/09/07 08:54:26;;;;;;;4.97;3.42;;;;;;;33.52;45.85;96557.16;6130418;23;20870;-83
2023/09/07 08:56:51;;;;;;;6.20;3.50;;;;;;;34.91;42.79;96538.91;6129988;23;20013;-83
2023/09/07 08:59:17;;;;;;;6.30;3.40;;;;;;;33.72;45.88;96547.00;6154691;23;20422;-83
2023/09/07 09:01:43;;;;;;;6.93;4.22;;;;;;;33.45;44.88;96553.97;6155336;23;20430;-83
2023/09/07 09:04:08;;;;;;;5.88;3.60;;;;;;;34.02;43.93;96556.56;6130761;23;20338;-83
2023/09/07 09:06:34;;;;;;;6.13;4.00;;;;;;;34.49;44.15;96552.63;6181191;23;20052;-83
2023/09/07 09:08:59;;;;;;;5.53;3.65;;;;;;;34.53;42.88;96549.31;6131624;23;20009;-83
2023/09/07 09:11:27;;;;;;;5.80;3.65;;;;;;;34.76;42.94;96548.25;6155560;23;20500;-83
2023/09/07 09:14:21;;;;;;;8.60;3.60;;;;;;;34.29;43.29;96549.50;6155652;23;20008;-83
2023/09/07 09:16:51;;;;;;;7.55;4.10;;;;;;;34.43;43.28;96545.66;6155309;23;20037;-83
2023/09/07 09:19:17;;;;;;;7.72;4.22;;;;;;;33.59;43.68;96554.03;6155629;23;20028;-83
2023/09/07 09:21:44;;;;;;;7.40;3.70;;;;;;;34.69;41.49;96550.59;6155964;23;20009;-83
2023/09/07 09:24:11;;;;;;;5.57;3.55;;;;;;;34.49;42.29;96544.44;6156479;23;20584;-83
2023/09/07 09:26:37;;;;;;;6.28;4.03;;;;;;;33.65;45.22;96552.06;6130472;23;20024;-83
2023/09/07 09:29:03;;;;;;;6.10;3.67;;;;;;;32.39;47.20;96546.22;6131361;23;20005;-83
2023/09/07 09:31:30;;;;;;;6.00;3.85;;;;;;;34.12;44.21;96544.66;6130624;23;20445;-83
2023/09/07 09:33:56;;;;;;;6.90;3.42;;;;;;;32.92;47.80;96551.50;6156021;23;20001;-83
2023/09/07 09:36:22;;;;;;;5.75;3.80;;;;;;;34.18;44.04;96538.00;6154022;23;20012;-83
2023/09/07 09:38:49;;;;;;;7.82;4.15;;;;;;;33.69;44.41;96544.88;6131650;23;20005;-83
2023/09/07 09:41:17;;;;;;;8.02;3.70;;;;;;;33.99;43.81;96536.13;6130644;23;20001;-83
2023/09/07 09:43:44;;;;;;;7.28;3.90;;;;;;;34.22;44.18;96528.88;6130945;23;20056;-83
2023/09/07 09:46:10;;;;;;;7.30;4.15;;;;;;;33.98;43.53;96539.97;6130330;23;20013;-82
2023/09/07 09:48:37;;;;;;;6.53;3.72;;;;;;;35.13;43.07;96530.75;6182657;23;20044;-83
2023/09/07 09:51:04;;;;;;;5.38;3.65;;;;;;;33.61;44.14;96537.41;6132561;23;20012;-83
2023/09/07 09:53:30;;;;;;;6.60;4.05;;;;;;;34.61;43.49;96529.47;6157451;23;20087;-83
2023/09/07 09:55:56;;;;;;;6.60;3.80;;;;;;;33.93;43.54;96537.31;6155227;23;20072;-83
2023/09/07 09:58:22;;;;;;;4.57;3.60;;;;;;;34.63;43.13;96527.25;6157573;23;20036;-83
2023/09/07 10:00:52;;;;;;;4.72;3.28;;;;;;;35.13;42.83;96535.41;6132881;23;20005;-83
2023/09/07 10:03:26;;;;;;;5.03;3.35;;;;;;;33.15;46.04;96540.84;6133200;23;20009;-83
2023/09/07 10:05:53;;;;;;;6.25;4.22;;;;;;;33.25;46.93;96538.78;6131595;23;20009;-83
2023/09/07 10:08:19;;;;;;;7.88;3.78;;;;;;;33.82;44.30;96532.38;6133281;23;20005;-83
2023/09/07 10:10:55;;;;;;;5.80;3.40;;;;;;;34.14;44.57;96534.22;6133678;23;20042;-83
2023/09/07 10:13:32;;;;;;;7.65;4.05;;;;;;;33.84;43.94;96528.25;6157775;23;20009;-84
2023/09/07 10:16:08;;;;;;;5.80;2.90;;;;;;;35.85;41.45;96526.22;6132740;23;20008;-83
2023/09/07 10:18:35;;;;;;;5.68;3.67;;;;;;;34.74;43.40;96523.16;6182829;23;20046;-84
2023/09/07 10:21:02;;;;;;;7.30;3.95;;;;;;;33.21;44.94;96536.94;6133064;23;20013;-83
2023/09/07 10:23:45;;;;;;;6.40;3.67;;;;;;;32.44;47.65;96535.28;6133109;23;20017;-84
2023/09/07 10:26:21;;;;;;;5.28;3.55;;;;;;;34.78;43.00;96524.19;6133272;23;20001;-83
2023/09/07 10:28:47;;;;;;;8.48;3.90;;;;;;;33.77;44.48;96536.81;6183700;23;20001;-83
2023/09/07 10:31:15;;;;;;;6.03;3.83;;;;;;;33.82;45.12;96535.09;6132477;23;20529;-83
2023/09/07 10:33:40;;;;;;;6.70;3.40;;;;;;;33.80;46.93;96532.66;6132539;23;20349;-82
2023/09/07 10:36:06;;;;;;;6.93;3.78;;;;;;;32.59;47.54;96532.34;6156225;23;20073;-81
2023/09/07 10:38:33;;;;;;;6.35;3.75;;;;;;;33.70;45.80;96530.13;6157057;23;20083;-81
2023/09/07 10:41:01;;;;;;;9.15;3.70;;;;;;;33.78;44.89;96529.44;6132374;23;20016;-81
2023/09/07 10:43:31;;;;;;;6.25;4.03;;;;;;;32.55;46.42;96528.59;6132038;23;20015;-81
2023/09/07 10:45:58;;;;;;;7.53;3.70;;;;;;;33.02;47.02;96535.03;6131955;23;20036;-81
2023/09/07 10:48:25;;;;;;;6.13;3.58;;;;;;;33.09;47.29;96529.22;6132144;23;20009;-81
2023/09/07 10:50:51;;;;;;;4.72;3.40;;;;;;;32.98;46.60;96534.03;6131905;23;20043;-81
2023/09/07 10:53:31;;;;;;;6.63;3.13;;;;;;;34.23;43.47;96524.22;6156410;23;20009;-82
2023/09/07 10:56:04;;;;;;;6.20;3.58;;;;;;;34.68;42.24;96521.69;6131776;23;20016;-82
2023/09/07 10:58:32;;;;;;;7.00;3.40;;;;;;;35.05;43.52;96526.03;6156568;23;20013;-81
2023/09/07 11:00:59;;;;;;;6.22;4.10;;;;;;;34.01;44.02;96528.47;6156660;23;20026;-82
2023/09/07 11:03:37;;;;;;;6.72;3.97;;;;;;;34.17;44.16;96520.81;6131237;23;20067;-82
2023/09/07 11:06:14;;;;;;;5.30;3.80;;;;;;;34.73;43.05;96521.56;6155758;23;20600;-81
2023/09/07 11:08:41;;;;;;;6.95;3.25;;;;;;;34.41;43.33;96523.31;6131430;23;20016;-82
2023/09/07 11:11:08;;;;;;;5.47;3.45;;;;;;;34.57;41.41;96514.81;6131976;23;20042;-82
2023/09/07 11:13:34;;;;;;;6.45;3.53;;;;;;;34.23;42.52;96516.03;6156649;23;20075;-82
2023/09/07 11:16:00;;;;;;;5.53;3.40;;;;;;;34.84;41.87;96512.00;6157123;23;20013;-80
2023/09/07 11:18:26;;;;;;;7.13;3.88;;;;;;;35.69;41.12;96514.91;6132489;23;20055;-80
2023/09/07 11:20:53;;;;;;;5.15;3.67;;;;;;;36.24;39.44;96506.28;6157233;23;20016;-80
2023/09/07 11:23:20;;;;;;;6.05;3.70;;;;;;;36.10;39.30;96509.13;6133918;23;20015;-80
2023/09/07 11:25:49;;;;;;;9.93;3.63;;;;;;;34.15;42.74;96516.75;6138523;23;20005;-80
2023/09/07 11:28:18;;;;;;;10.70;4.07;;;;;;;34.69;42.43;96510.44;6166986;23;20080;-80